Time;durP1;ratioP1;P1;durP2;ratioP2;P2;SDS_P1;SDS_P2;PMS_P1;PMS_P2;Temp;Humidity;BMP_temperature;BMP_pressure;BME280_temperature;BME280_humidity;BME280_pressure;Samples;Min_cycle;Max_cycle;Signal;HPM_P1;HPM_P2
2022/05/01 00:00:40;;;;;;;15.43;10.93;;;10.00;99.90;;;;;;5012447;28;20129;-79
2022/05/01 00:03:07;;;;;;;19.00;12.65;;;10.00;99.90;;;;;;5012541;28;20136;-80
2022/05/01 00:05:36;;;;;;;18.15;12.93;;;10.00;99.90;;;;;;5012587;28;20077;-80
2022/05/01 00:08:04;;;;;;;17.85;13.10;;;10.00;99.90;;;;;;5012212;28;20505;-80
2022/05/01 00:10:32;;;;;;;18.52;13.13;;;9.90;99.90;;;;;;5012297;28;20116;-81
2022/05/01 00:13:00;;;;;;;20.48;13.45;;;9.80;99.90;;;;;;5012243;28;20060;-80
2022/05/01 00:15:27;;;;;;;19.48;13.48;;;9.80;99.90;;;;;;5012240;28;20145;-79
2022/05/01 00:17:54;;;;;;;20.25;13.55;;;9.80;99.90;;;;;;5012428;28;20049;-79
2022/05/01 00:20:22;;;;;;;20.98;13.52;;;9.80;99.90;;;;;;5012335;28;20057;-79
2022/05/01 00:22:49;;;;;;;19.73;13.82;;;9.80;99.90;;;;;;5012313;28;20046;-79
2022/05/01 00:25:16;;;;;;;18.52;13.18;;;9.70;99.90;;;;;;5012172;28;20077;-79
2022/05/01 00:27:44;;;;;;;18.20;13.02;;;9.90;99.90;;;;;;5012587;28;20066;-78
2022/05/01 00:30:13;;;;;;;18.65;12.98;;;9.80;99.90;;;;;;5012352;28;20121;-81
2022/05/01 00:38:12;;;;;;;18.05;12.85;;;9.90;99.90;;;;;;5012276;28;20065;-80
2022/05/01 00:40:39;;;;;;;18.35;13.30;;;9.90;99.90;;;;;;5012891;28;20389;-81
2022/05/01 00:43:08;;;;;;;20.73;13.80;;;9.90;99.90;;;;;;5015732;28;20108;-79
2022/05/01 00:45:35;;;;;;;21.50;14.30;;;9.60;99.90;;;;;;5015604;28;20133;-79
2022/05/01 00:48:02;;;;;;;21.83;14.25;;;9.40;99.90;;;;;;5015608;28;20081;-79
2022/05/01 00:50:30;;;;;;;20.45;14.77;;;9.50;99.90;;;;;;5015539;28;20129;-78
2022/05/01 00:52:57;;;;;;;19.35;13.77;;;9.40;99.90;;;;;;5015585;28;20136;-79
2022/05/01 00:55:24;;;;;;;21.27;13.70;;;9.60;99.90;;;;;;5015760;28;20347;-79
2022/05/01 00:57:52;;;;;;;20.17;13.68;;;9.50;99.90;;;;;;5015333;28;20137;-80
2022/05/01 01:00:21;;;;;;;21.08;14.80;;;9.60;99.90;;;;;;5015590;28;20076;-79
2022/05/01 01:02:49;;;;;;;23.02;13.88;;;9.60;99.90;;;;;;5015261;28;20062;-78
2022/05/01 01:05:16;;;;;;;22.63;15.82;;;9.70;99.90;;;;;;5015301;28;20542;-78
2022/05/01 01:07:43;;;;;;;21.58;14.30;;;9.60;99.90;;;;;;5015425;28;20121;-81
2022/05/01 01:10:11;;;;;;;21.77;14.95;;;9.50;99.90;;;;;;5015369;28;20096;-79
2022/05/01 01:12:56;;;;;;;19.52;14.10;;;9.50;99.90;;;;;;5015253;28;20053;-79
2022/05/01 01:15:28;;;;;;;22.00;15.02;;;9.60;99.90;;;;;;5015212;28;20141;-79
2022/05/01 01:17:56;;;;;;;24.00;15.98;;;9.50;99.90;;;;;;5015272;28;20046;-80
2022/05/01 01:20:27;;;;;;;24.65;17.40;;;9.40;99.90;;;;;;5015202;28;20065;-79
2022/05/01 01:22:59;;;;;;;24.33;15.30;;;9.30;99.90;;;;;;5015440;28;20134;-79
2022/05/01 01:25:29;;;;;;;19.77;13.90;;;9.50;99.90;;;;;;5016101;28;20133;-79
2022/05/01 01:28:02;;;;;;;19.98;13.60;;;9.60;99.90;;;;;;5017778;28;20151;-79
2022/05/01 01:33:15;;;;;;;21.55;14.50;;;9.90;99.90;;;;;;5015235;28;20084;-78
2022/05/01 01:35:45;;;;;;;23.73;15.98;;;9.70;99.90;;;;;;5015219;28;20136;-79
2022/05/01 01:38:13;;;;;;;21.73;14.90;;;9.50;99.90;;;;;;5014636;28;20045;-80
2022/05/01 01:40:44;;;;;;;20.60;14.18;;;9.50;99.90;;;;;;5015806;28;20084;-79
2022/05/01 01:43:13;;;;;;;21.55;14.10;;;9.50;99.90;;;;;;5016769;28;20053;-81
2022/05/01 01:45:40;;;;;;;20.48;14.20;;;9.50;99.90;;;;;;5015498;28;20407;-80
2022/05/01 01:48:12;;;;;;;19.98;14.48;;;9.60;99.90;;;;;;5014964;28;20510;-80
2022/05/01 01:50:39;;;;;;;23.95;15.07;;;9.50;99.90;;;;;;5015153;28;20485;-80
2022/05/01 01:53:07;;;;;;;20.65;14.77;;;9.40;99.90;;;;;;5014210;28;20487;-79
2022/05/01 01:55:37;;;;;;;21.77;15.18;;;9.40;99.90;;;;;;5014619;28;20041;-80
2022/05/01 01:58:05;;;;;;;21.17;14.95;;;9.40;99.90;;;;;;5014341;28;20388;-79
2022/05/01 02:00:32;;;;;;;20.90;14.60;;;9.20;99.90;;;;;;5014419;28;20244;-81
2022/05/01 02:02:59;;;;;;;22.73;15.07;;;9.30;99.90;;;;;;5034034;28;20049;-79
2022/05/01 02:05:27;;;;;;;21.42;14.48;;;9.30;99.90;;;;;;5033483;28;20585;-78
2022/05/01 02:07:55;;;;;;;23.13;14.90;;;9.30;99.90;;;;;;5033915;28;20088;-79
2022/05/01 02:10:23;;;;;;;22.67;14.70;;;9.20;99.90;;;;;;5034047;28;20132;-79
2022/05/01 02:12:51;;;;;;;20.92;14.63;;;9.30;99.90;;;;;;5033799;28;20085;-80
2022/05/01 02:15:19;;;;;;;24.60;15.95;;;9.30;99.90;;;;;;5033762;28;20132;-79
2022/05/01 02:17:48;;;;;;;24.52;16.13;;;9.30;99.90;;;;;;5025642;28;20080;-79
2022/05/01 02:20:15;;;;;;;23.65;15.93;;;9.30;99.90;;;;;;5033809;28;20049;-80
2022/05/01 02:22:44;;;;;;;25.30;16.58;;;9.20;99.90;;;;;;5033766;28;20132;-80
2022/05/01 02:25:11;;;;;;;26.17;17.17;;;9.30;99.90;;;;;;5033603;28;20049;-80
2022/05/01 02:27:38;;;;;;;23.33;16.65;;;9.20;99.90;;;;;;5033534;28;20466;-81
2022/05/01 02:30:10;;;;;;;24.55;16.02;;;9.30;99.90;;;;;;5033447;28;20140;-80
2022/05/01 02:32:37;;;;;;;22.90;15.27;;;9.40;99.90;;;;;;5033276;28;20557;-79
2022/05/01 02:35:05;;;;;;;22.95;15.35;;;9.40;99.90;;;;;;5033525;28;20128;-78
2022/05/01 02:37:32;;;;;;;23.05;15.40;;;9.50;99.90;;;;;;5033306;28;20087;-80
2022/05/01 02:40:00;;;;;;;21.60;14.82;;;9.40;99.90;;;;;;5033316;28;20124;-81
2022/05/01 02:42:27;;;;;;;25.23;16.10;;;9.40;99.90;;;;;;5033215;28;20124;-80
2022/05/01 02:44:54;;;;;;;24.17;15.82;;;9.30;99.90;;;;;;5033086;28;20475;-78
2022/05/01 02:47:23;;;;;;;22.17;14.90;;;9.30;99.90;;;;;;5033066;28;20574;-80
2022/05/01 02:49:50;;;;;;;22.30;15.10;;;9.20;99.90;;;;;;5033063;28;20399;-79
2022/05/01 02:52:17;;;;;;;22.88;15.23;;;9.10;99.90;;;;;;5033168;28;20136;-79
2022/05/01 02:54:44;;;;;;;22.05;15.35;;;9.20;99.90;;;;;;5033102;28;20085;-79
2022/05/01 02:57:11;;;;;;;24.02;16.00;;;9.10;99.90;;;;;;5032981;28;20542;-78
2022/05/01 02:59:38;;;;;;;24.13;15.52;;;8.90;99.90;;;;;;5033252;28;20380;-80
2022/05/01 03:02:06;;;;;;;23.90;16.20;;;9.00;99.90;;;;;;5020811;28;20085;-79
2022/05/01 03:04:36;;;;;;;23.85;16.17;;;9.00;99.90;;;;;;5012600;28;20534;-80
2022/05/01 03:07:07;;;;;;;23.38;15.70;;;9.10;99.90;;;;;;5013294;28;20049;-79
2022/05/01 03:09:34;;;;;;;22.08;15.57;;;9.10;99.90;;;;;;5013250;28;20049;-80
2022/05/01 03:12:03;;;;;;;29.20;19.17;;;9.00;99.90;;;;;;5012975;28;20077;-79
2022/05/01 03:14:30;;;;;;;43.95;25.00;;;9.10;99.90;;;;;;5013201;28;20056;-80
2022/05/01 03:16:57;;;;;;;41.55;24.65;;;9.20;99.90;;;;;;5013127;28;20054;-78
2022/05/01 03:22:13;;;;;;;51.97;29.60;;;9.40;99.90;;;;;;5012953;28;20407;-80
2022/05/01 03:24:41;;;;;;;35.53;21.92;;;9.40;99.90;;;;;;5013055;28;20053;-80
2022/05/01 03:27:10;;;;;;;28.05;17.88;;;9.30;99.90;;;;;;5013173;28;20121;-78
2022/05/01 03:29:39;;;;;;;26.73;17.05;;;9.30;99.90;;;;;;5013059;28;20129;-79
2022/05/01 03:32:07;;;;;;;25.25;16.75;;;9.20;99.90;;;;;;5012743;28;20081;-78
2022/05/01 03:34:37;;;;;;;24.27;14.93;;;9.20;99.90;;;;;;5012633;28;20052;-79
2022/05/01 03:37:07;;;;;;;23.65;15.13;;;9.20;99.90;;;;;;5012757;28;20058;-78
2022/05/01 03:39:36;;;;;;;26.20;16.27;;;9.30;99.90;;;;;;5012638;28;20132;-79
2022/05/01 03:42:05;;;;;;;25.05;15.65;;;9.30;99.90;;;;;;5012645;28;20104;-80
2022/05/01 03:44:32;;;;;;;21.13;15.20;;;9.20;99.90;;;;;;5012489;28;20123;-79
2022/05/01 03:46:59;;;;;;;23.13;16.25;;;9.20;99.90;;;;;;5014931;28;20073;-79
2022/05/01 03:49:26;;;;;;;20.70;15.02;;;9.20;99.90;;;;;;5015851;28;20463;-79
2022/05/01 03:51:53;;;;;;;22.08;15.27;;;9.30;99.90;;;;;;5015622;28;20111;-81
2022/05/01 03:54:20;;;;;;;21.25;14.50;;;9.30;99.90;;;;;;5012413;28;20050;-80
2022/05/01 03:56:49;;;;;;;21.50;14.60;;;9.20;99.90;;;;;;5012705;28;20140;-80
2022/05/01 03:59:16;;;;;;;21.67;14.65;;;9.10;99.90;;;;;;5012759;28;20089;-79
2022/05/01 04:01:44;;;;;;;19.52;14.10;;;9.20;99.90;;;;;;5012668;28;20085;-79
2022/05/01 04:04:11;;;;;;;22.25;14.45;;;9.10;99.90;;;;;;5011842;28;20450;-80
2022/05/01 04:06:38;;;;;;;23.92;15.77;;;9.30;99.90;;;;;;5012336;28;20089;-79
2022/05/01 04:09:05;;;;;;;25.95;16.75;;;9.40;99.90;;;;;;5012564;28;20140;-79
2022/05/01 04:11:32;;;;;;;25.33;17.73;;;9.40;99.90;;;;;;5012495;28;20078;-79
2022/05/01 04:14:01;;;;;;;27.77;18.95;;;9.40;99.90;;;;;;5012453;28;20123;-79
2022/05/01 04:16:28;;;;;;;26.65;18.77;;;9.40;99.90;;;;;;5015798;28;20073;-79
2022/05/01 04:18:56;;;;;;;27.48;19.25;;;9.40;99.90;;;;;;5016274;28;20128;-79
2022/05/01 04:21:23;;;;;;;28.08;19.35;;;9.40;99.90;;;;;;5016186;28;20054;-78
2022/05/01 04:23:51;;;;;;;29.38;19.30;;;9.40;99.90;;;;;;5016060;28;20042;-78
2022/05/01 04:26:18;;;;;;;26.08;17.58;;;9.50;99.90;;;;;;5016256;28;20472;-79
2022/05/01 04:31:28;;;;;;;26.50;17.65;;;9.50;99.90;;;;;;5015017;28;20056;-80
2022/05/01 04:33:55;;;;;;;25.08;17.23;;;9.40;99.90;;;;;;5016102;28;20050;-79
2022/05/01 04:36:22;;;;;;;24.20;16.55;;;9.40;99.90;;;;;;5016136;28;20088;-79
2022/05/01 04:38:50;;;;;;;25.08;16.33;;;9.50;99.90;;;;;;5015942;28;20570;-80
2022/05/01 04:41:18;;;;;;;22.63;15.82;;;9.50;99.90;;;;;;5015863;28;20431;-80
2022/05/01 04:43:46;;;;;;;23.20;15.90;;;9.60;99.90;;;;;;5015617;28;20415;-78
2022/05/01 04:46:14;;;;;;;22.70;15.88;;;9.50;99.90;;;;;;5015813;28;20077;-80
2022/05/01 04:48:42;;;;;;;20.73;14.90;;;9.50;99.90;;;;;;5016051;28;20392;-79
2022/05/01 04:51:10;;;;;;;22.50;15.50;;;9.50;99.90;;;;;;5016157;28;20084;-79
2022/05/01 04:53:37;;;;;;;20.45;14.88;;;9.50;99.90;;;;;;5015594;28;20053;-80
2022/05/01 04:58:47;;;;;;;21.40;15.35;;;9.50;99.90;;;;;;5015143;28;20555;-80
2022/05/01 05:01:14;;;;;;;20.40;14.50;;;9.50;99.90;;;;;;5005235;28;20058;-81
2022/05/01 05:03:43;;;;;;;19.70;14.25;;;9.60;99.90;;;;;;4995884;28;20074;-79
2022/05/01 05:06:10;;;;;;;21.45;14.80;;;9.50;99.90;;;;;;4996064;28;20129;-79
2022/05/01 05:11:21;;;;;;;22.75;15.90;;;9.20;99.90;;;;;;4995927;28;20428;-79
2022/05/01 05:13:48;;;;;;;21.95;14.95;;;9.00;99.90;;;;;;4995535;28;20093;-79
2022/05/01 05:16:15;;;;;;;24.05;15.75;;;9.00;99.90;;;;;;4996225;28;20073;-79
2022/05/01 05:18:44;;;;;;;23.17;16.48;;;9.00;99.90;;;;;;4995622;28;20089;-79
2022/05/01 05:21:11;;;;;;;23.63;15.43;;;9.00;99.90;;;;;;4995473;28;20058;-79
2022/05/01 05:23:39;;;;;;;24.17;16.92;;;9.00;99.90;;;;;;4995563;28;20053;-78
2022/05/01 05:26:06;;;;;;;23.15;16.85;;;9.10;99.90;;;;;;4995082;28;20133;-79
2022/05/01 05:28:33;;;;;;;23.20;16.23;;;9.10;99.90;;;;;;4995353;28;20052;-80
2022/05/01 05:31:00;;;;;;;23.00;15.90;;;8.90;99.90;;;;;;4995446;28;20050;-79
2022/05/01 05:33:27;;;;;;;23.70;17.08;;;8.90;99.90;;;;;;4995233;28;20058;-79
2022/05/01 05:35:56;;;;;;;23.75;17.17;;;8.80;99.90;;;;;;4995161;28;20085;-81
2022/05/01 05:38:23;;;;;;;22.90;15.88;;;8.90;99.90;;;;;;4995391;28;20081;-79
2022/05/01 05:40:50;;;;;;;24.33;16.65;;;9.10;99.90;;;;;;4995296;28;20089;-79
2022/05/01 05:43:17;;;;;;;25.30;16.38;;;9.00;99.90;;;;;;4995357;28;20085;-80
2022/05/01 05:45:45;;;;;;;23.88;16.73;;;9.00;99.90;;;;;;4995100;28;20093;-77
2022/05/01 05:48:12;;;;;;;21.95;16.10;;;9.00;99.90;;;;;;4994877;28;20090;-80
2022/05/01 05:50:39;;;;;;;22.45;15.75;;;9.10;99.90;;;;;;4995146;28;20116;-79
2022/05/01 05:53:09;;;;;;;25.13;15.85;;;9.10;99.90;;;;;;4995019;28;20492;-79
2022/05/01 05:55:37;;;;;;;23.08;15.88;;;9.10;99.90;;;;;;4995262;28;20050;-79
2022/05/01 05:58:05;;;;;;;24.38;15.98;;;9.10;99.90;;;;;;4995138;28;20061;-79
2022/05/01 06:00:33;;;;;;;25.52;16.90;;;9.10;99.90;;;;;;4995534;28;20074;-83
2022/05/01 06:03:01;;;;;;;23.35;15.88;;;9.00;99.90;;;;;;4994843;28;20105;-79
2022/05/01 06:05:28;;;;;;;23.30;17.02;;;9.10;99.90;;;;;;4996728;28;20054;-81
2022/05/01 06:07:55;;;;;;;27.25;18.48;;;9.20;99.90;;;;;;4995618;28;20085;-80
2022/05/01 06:10:24;;;;;;;26.33;18.40;;;9.10;99.90;;;;;;4995001;28;20105;-80
2022/05/01 06:12:51;;;;;;;23.50;16.27;;;8.90;99.90;;;;;;4994795;28;20070;-79
2022/05/01 06:15:18;;;;;;;26.48;18.70;;;9.00;99.90;;;;;;4994806;28;20085;-79
2022/05/01 06:17:45;;;;;;;26.42;18.67;;;8.80;99.90;;;;;;4986560;28;20460;-79
2022/05/01 06:20:12;;;;;;;26.20;18.13;;;8.80;99.90;;;;;;4994485;28;20126;-80
2022/05/01 06:22:40;;;;;;;27.30;17.88;;;8.80;99.90;;;;;;4994434;28;20090;-78
2022/05/01 06:25:08;;;;;;;25.45;16.98;;;8.90;99.90;;;;;;4994145;28;20090;-79
2022/05/01 06:27:37;;;;;;;25.38;17.33;;;8.90;99.90;;;;;;4994575;28;20560;-80
2022/05/01 06:30:05;;;;;;;27.10;17.98;;;8.90;99.90;;;;;;4994230;28;20057;-79
2022/05/01 06:32:33;;;;;;;28.23;17.88;;;8.90;99.90;;;;;;4994684;28;20133;-79
2022/05/01 06:35:00;;;;;;;28.65;18.80;;;9.00;99.90;;;;;;4995186;28;20085;-79
2022/05/01 06:37:28;;;;;;;26.92;17.23;;;9.10;99.90;;;;;;4994708;28;20568;-80
2022/05/01 06:39:55;;;;;;;26.23;17.27;;;9.20;99.90;;;;;;4994391;28;20074;-80
2022/05/01 06:42:22;;;;;;;26.67;17.80;;;9.20;99.90;;;;;;4994716;28;20089;-79
2022/05/01 06:44:50;;;;;;;26.42;17.88;;;9.40;99.90;;;;;;4994203;28;20054;-80
2022/05/01 06:47:18;;;;;;;27.45;18.33;;;9.40;99.90;;;;;;4994139;28;20542;-80
2022/05/01 06:49:45;;;;;;;35.90;21.45;;;9.40;99.90;;;;;;4994610;28;20499;-80
2022/05/01 06:52:12;;;;;;;31.50;21.13;;;9.40;99.90;;;;;;4994498;28;20116;-79
2022/05/01 06:54:39;;;;;;;33.28;20.90;;;9.40;99.90;;;;;;4993964;28;20439;-78
2022/05/01 06:57:09;;;;;;;33.50;20.30;;;9.50;99.90;;;;;;4993799;28;20138;-80
2022/05/01 06:59:36;;;;;;;31.20;18.88;;;9.60;99.90;;;;;;4994402;28;20050;-79
2022/05/01 07:02:05;;;;;;;29.90;19.08;;;9.70;99.90;;;;;;4994431;28;20081;-80
2022/05/01 07:04:32;;;;;;;28.70;19.33;;;9.80;99.90;;;;;;4994611;28;20065;-79
2022/05/01 07:06:59;;;;;;;28.13;17.58;;;9.80;99.90;;;;;;4993952;28;20050;-80
2022/05/01 07:09:26;;;;;;;28.55;18.50;;;9.90;99.90;;;;;;4993815;28;20137;-80
2022/05/01 07:11:54;;;;;;;27.17;17.67;;;10.00;99.90;;;;;;4993402;28;20058;-79
2022/05/01 07:14:21;;;;;;;30.42;19.50;;;10.10;99.90;;;;;;4994144;28;20042;-79
2022/05/01 07:16:48;;;;;;;29.90;18.58;;;10.00;99.90;;;;;;4993606;28;20431;-80
2022/05/01 07:19:17;;;;;;;30.83;19.67;;;9.90;99.90;;;;;;4993682;28;20381;-79
2022/05/01 07:21:44;;;;;;;33.60;20.50;;;9.90;99.90;;;;;;4993672;28;20142;-80
2022/05/01 07:24:11;;;;;;;30.80;19.33;;;9.90;99.90;;;;;;4993647;28;20098;-80
2022/05/01 07:26:38;;;;;;;31.17;19.98;;;9.90;99.90;;;;;;4993358;28;20074;-80
2022/05/01 07:29:05;;;;;;;32.65;20.85;;;10.00;99.90;;;;;;4993543;28;20081;-79
2022/05/01 07:31:33;;;;;;;37.90;23.13;;;9.80;99.90;;;;;;4993276;28;20054;-79
2022/05/01 07:34:00;;;;;;;35.42;21.98;;;9.60;99.90;;;;;;4993136;28;20053;-81
2022/05/01 07:36:28;;;;;;;35.85;21.77;;;9.60;99.90;;;;;;4993090;28;20136;-80
2022/05/01 07:38:55;;;;;;;35.35;21.20;;;9.60;99.90;;;;;;4993321;28;20085;-78
2022/05/01 07:41:23;;;;;;;30.90;20.20;;;9.60;99.90;;;;;;4993172;28;20077;-78
2022/05/01 07:43:55;;;;;;;34.80;22.90;;;9.70;99.90;;;;;;4992968;28;20090;-79
2022/05/01 07:46:23;;;;;;;35.05;22.08;;;9.80;99.90;;;;;;4992975;28;20448;-79
2022/05/01 07:49:05;;;;;;;34.38;22.35;;;9.80;99.90;;;;;;4992842;28;20137;-80
2022/05/01 07:51:35;;;;;;;37.40;23.88;;;9.80;99.90;;;;;;4992945;28;20134;-80
2022/05/01 07:54:05;;;;;;;37.33;22.67;;;9.60;99.90;;;;;;4993283;28;20119;-78
2022/05/01 07:56:33;;;;;;;37.40;23.33;;;9.70;99.90;;;;;;4993029;28;20516;-80
2022/05/01 07:59:01;;;;;;;36.65;22.63;;;9.70;99.90;;;;;;4993042;28;20551;-80
2022/05/01 08:01:28;;;;;;;34.53;21.70;;;9.80;99.90;;;;;;4992889;28;20492;-79
2022/05/01 08:06:42;;;;;;;34.38;20.67;;;9.90;99.90;;;;;;4993228;28;20065;-79
2022/05/01 08:09:09;;;;;;;29.38;19.38;;;9.90;99.90;;;;;;4993212;28;20100;-80
2022/05/01 08:11:36;;;;;;;34.58;21.42;;;10.10;99.90;;;;;;4992727;28;20162;-79
2022/05/01 08:14:04;;;;;;;38.10;23.55;;;10.00;99.90;;;;;;4993000;28;20121;-79
2022/05/01 08:16:31;;;;;;;32.85;20.90;;;9.90;99.90;;;;;;4993052;28;20082;-79
2022/05/01 08:21:45;;;;;;;30.67;19.63;;;10.10;99.90;;;;;;4992769;28;20053;-80
2022/05/01 08:24:12;;;;;;;28.77;18.67;;;10.10;99.90;;;;;;4992978;28;20062;-78
2022/05/01 08:26:39;;;;;;;27.73;17.08;;;10.20;99.90;;;;;;4992562;28;20067;-79
2022/05/01 08:29:06;;;;;;;27.48;16.98;;;10.40;99.90;;;;;;4993057;28;20053;-79
2022/05/01 08:31:34;;;;;;;30.95;19.55;;;10.50;99.90;;;;;;4992515;28;20523;-79
2022/05/01 08:34:01;;;;;;;30.52;18.58;;;10.50;99.90;;;;;;4992444;28;20093;-80
2022/05/01 08:36:29;;;;;;;30.10;18.85;;;10.50;99.90;;;;;;4992589;28;20050;-79
2022/05/01 08:38:57;;;;;;;29.58;18.17;;;10.40;99.90;;;;;;4992347;28;20076;-79
2022/05/01 08:41:26;;;;;;;27.00;16.95;;;10.50;99.90;;;;;;4992509;28;20458;-80
2022/05/01 08:43:57;;;;;;;28.02;17.38;;;10.50;99.90;;;;;;4992724;28;20134;-79
2022/05/01 08:46:42;;;;;;;28.65;17.90;;;10.50;99.90;;;;;;4993049;28;20054;-79
2022/05/01 08:49:10;;;;;;;26.27;15.90;;;10.60;99.90;;;;;;4992822;28;20073;-78
2022/05/01 08:51:40;;;;;;;29.38;17.30;;;10.80;99.90;;;;;;4992763;28;20628;-80
2022/05/01 08:54:12;;;;;;;28.33;17.42;;;10.70;99.90;;;;;;4992758;28;20463;-78
2022/05/01 08:56:41;;;;;;;27.02;17.65;;;10.80;99.90;;;;;;4992526;28;20258;-79
2022/05/01 08:59:11;;;;;;;25.75;16.33;;;10.90;99.90;;;;;;4992647;28;20488;-80
2022/05/01 09:01:40;;;;;;;26.00;16.33;;;10.90;99.90;;;;;;4993015;28;20086;-79
2022/05/01 09:04:09;;;;;;;25.48;16.08;;;10.80;99.90;;;;;;4995932;28;20090;-79
2022/05/01 09:06:37;;;;;;;25.20;16.60;;;10.80;99.90;;;;;;4996186;28;20388;-79
2022/05/01 09:09:06;;;;;;;24.98;15.68;;;10.90;99.90;;;;;;4995849;28;20057;-78
2022/05/01 09:14:21;;;;;;;25.98;16.40;;;10.80;99.90;;;;;;4995839;28;20057;-78
2022/05/01 09:17:11;;;;;;;24.25;15.88;;;10.90;99.90;;;;;;4996402;28;20057;-78
2022/05/01 09:19:38;;;;;;;27.77;17.35;;;10.90;99.90;;;;;;4996515;28;20105;-79
2022/05/01 09:22:05;;;;;;;28.05;17.90;;;10.80;99.90;;;;;;4995869;28;20085;-78
2022/05/01 09:24:33;;;;;;;24.80;16.00;;;10.90;99.90;;;;;;4995997;28;20043;-77
2022/05/01 09:27:02;;;;;;;25.90;16.67;;;11.10;99.90;;;;;;4995603;28;20092;-78
2022/05/01 09:29:34;;;;;;;25.80;17.20;;;11.20;99.90;;;;;;4995654;28;20117;-78
2022/05/01 09:32:04;;;;;;;24.08;15.27;;;11.30;99.90;;;;;;4995861;28;20104;-79
2022/05/01 09:34:35;;;;;;;24.35;15.23;;;11.50;99.90;;;;;;4996115;28;20050;-78
2022/05/01 09:37:04;;;;;;;22.92;14.65;;;11.70;99.90;;;;;;4995706;28;20046;-78
2022/05/01 09:39:33;;;;;;;21.08;13.93;;;12.00;99.90;;;;;;4995707;28;20058;-78
2022/05/01 09:42:18;;;;;;;22.58;13.75;;;12.00;99.90;;;;;;4995682;28;20078;-80
2022/05/01 09:45:04;;;;;;;21.95;13.52;;;12.10;99.90;;;;;;4995014;28;20058;-79
2022/05/01 09:47:42;;;;;;;21.70;14.32;;;12.20;99.90;;;;;;4995726;28;20134;-79
2022/05/01 09:50:11;;;;;;;22.98;15.15;;;12.10;99.90;;;;;;4995609;28;20097;-78
2022/05/01 09:53:01;;;;;;;22.30;14.00;;;11.80;99.90;;;;;;4995450;28;20141;-79
2022/05/01 09:55:32;;;;;;;19.95;13.07;;;12.00;99.90;;;;;;4995389;28;20139;-78
2022/05/01 09:58:07;;;;;;;19.98;13.20;;;12.20;99.90;;;;;;4995490;28;20514;-80
2022/05/01 10:00:38;;;;;;;;;;;12.40;99.90;;;;;;4996720;28;20057;-79
2022/05/01 10:03:27;;;;;;;19.83;13.98;;;12.00;99.90;;;;;;4996295;28;20007;-81
2022/05/01 10:05:57;;;;;;;20.13;12.50;;;12.10;99.90;;;;;;4996460;28;20476;-78
2022/05/01 10:08:27;;;;;;;18.92;13.07;;;12.20;99.90;;;;;;4996068;28;20042;-78
2022/05/01 10:11:02;;;;;;;19.38;11.52;;;12.30;99.90;;;;;;4995445;28;20133;-79
2022/05/01 10:13:30;;;;;;;18.25;11.43;;;12.30;99.90;;;;;;4994903;28;20050;-80
2022/05/01 10:15:57;;;;;;;17.42;11.82;;;12.40;99.90;;;;;;4995235;28;20118;-79
2022/05/01 10:18:25;;;;;;;16.00;10.32;;;12.50;99.90;;;;;;4995140;28;20488;-79
2022/05/01 10:20:52;;;;;;;17.65;11.40;;;12.50;99.70;;;;;;4995142;28;20108;-79
2022/05/01 10:23:22;;;;;;;19.27;11.23;;;12.50;99.20;;;;;;4994692;28;20058;-80
2022/05/01 10:25:57;;;;;;;18.48;12.00;;;12.40;99.40;;;;;;4994723;28;20137;-79
2022/05/01 10:28:54;;;;;;;17.08;11.38;;;12.40;99.90;;;;;;4994819;28;20057;-79
2022/05/01 10:35:18;;;;;;;18.20;11.40;;;12.90;99.00;;;;;;4974511;28;20090;-79
2022/05/01 10:38:08;;;;;;;18.50;12.88;;;12.80;99.40;;;;;;4986474;28;20057;-78
2022/05/01 10:40:41;;;;;;;16.95;11.00;;;12.60;99.60;;;;;;4994406;28;20496;-79
2022/05/01 10:43:28;;;;;;;19.98;12.63;;;12.80;99.90;;;;;;4994502;28;20093;-80
2022/05/01 10:45:59;;;;;;;19.42;12.30;;;12.70;99.90;;;;;;4994350;28;20085;-79
2022/05/01 10:48:37;;;;;;;20.05;12.93;;;12.60;99.50;;;;;;4994659;28;20050;-79
2022/05/01 10:51:46;;;;;;;18.88;12.82;;;12.50;99.40;;;;;;4994472;28;20065;-79
2022/05/01 10:54:37;;;;;;;17.20;11.25;;;12.60;99.80;;;;;;4989090;28;20073;-79
2022/05/01 10:57:15;;;;;;;17.52;11.55;;;13.10;99.70;;;;;;4994436;28;20054;-78
2022/05/01 10:59:46;;;;;;;15.55;10.13;;;13.20;98.70;;;;;;4994401;28;20070;-78
2022/05/01 11:02:41;;;;;;;16.90;10.88;;;13.20;98.80;;;;;;4993698;28;20065;-78
2022/05/01 11:05:10;;;;;;;17.90;11.85;;;13.30;98.60;;;;;;4994284;28;20070;-78
2022/05/01 11:07:40;;;;;;;16.88;11.93;;;12.90;99.00;;;;;;4994211;28;20060;-79
2022/05/01 11:10:11;;;;;;;16.98;10.73;;;13.10;99.20;;;;;;4993365;28;20520;-79
2022/05/01 11:12:42;;;;;;;16.00;10.00;;;13.20;99.70;;;;;;4993289;28;20050;-79
2022/05/01 11:15:11;;;;;;;16.83;11.82;;;13.40;97.90;;;;;;4993300;28;20054;-78
2022/05/01 11:17:58;;;;;;;15.80;9.65;;;13.20;97.00;;;;;;4993327;28;20165;-79
2022/05/01 11:20:31;;;;;;;15.73;9.95;;;13.50;98.10;;;;;;4993375;28;20495;-79
2022/05/01 11:23:00;;;;;;;15.82;10.88;;;13.40;96.40;;;;;;4993611;28;20112;-79
2022/05/01 11:25:40;;;;;;;17.13;11.00;;;13.30;97.50;;;;;;4992393;28;20519;-78
2022/05/01 11:28:08;;;;;;;17.05;11.10;;;13.30;98.20;;;;;;4994146;28;20455;-80
2022/05/01 11:30:37;;;;;;;15.98;10.10;;;13.60;97.90;;;;;;4994567;28;20074;-80
2022/05/01 11:33:08;;;;;;;16.33;10.93;;;13.60;97.50;;;;;;4995265;28;20129;-79
2022/05/01 11:35:56;;;;;;;13.65;9.55;;;13.40;97.50;;;;;;4994433;28;20054;-79
2022/05/01 11:38:24;;;;;;;13.38;9.80;;;13.60;97.50;;;;;;4995050;28;20139;-78
2022/05/01 11:40:57;;;;;;;14.45;10.60;;;13.70;97.40;;;;;;4994426;28;20097;-80
2022/05/01 11:43:28;;;;;;;18.85;11.45;;;13.50;96.90;;;;;;4994528;28;20050;-81
2022/05/01 11:45:55;;;;;;;13.32;9.85;;;13.50;96.70;;;;;;4997030;28;20488;-78
2022/05/01 11:48:24;;;;;;;12.93;8.77;;;13.40;96.70;;;;;;4995869;28;20092;-79
2022/05/01 11:50:59;;;;;;;11.65;7.82;;;13.60;96.70;;;;;;4994026;28;20096;-79
2022/05/01 11:53:31;;;;;;;17.05;10.02;;;13.80;96.70;;;;;;4995110;28;20042;-80
2022/05/01 12:04:30;;;;;;;11.85;7.63;;;14.20;95.10;;;;;;4993091;28;20550;-78
2022/05/01 12:06:59;;;;;;;12.85;7.70;;;14.40;94.80;;;;;;4992796;28;20086;-78
2022/05/01 12:09:27;;;;;;;11.90;8.48;;;14.50;95.10;;;;;;4992733;28;20078;-79
2022/05/01 12:11:54;;;;;;;11.73;8.02;;;14.60;93.80;;;;;;4993097;28;20061;-79
2022/05/01 12:14:21;;;;;;;12.57;7.40;;;14.40;94.20;;;;;;4992721;28;20531;-78
2022/05/01 12:16:49;;;;;;;13.10;8.23;;;14.80;93.60;;;;;;4992673;28;20082;-79
2022/05/01 12:19:17;;;;;;;19.00;13.07;;;14.90;93.30;;;;;;4992661;28;20042;-78
2022/05/01 12:21:45;;;;;;;13.73;10.20;;;14.60;93.50;;;;;;4992571;28;20427;-79
2022/05/01 12:24:16;;;;;;;12.25;7.72;;;14.30;93.50;;;;;;4992551;28;20062;-79
2022/05/01 12:26:52;;;;;;;14.73;8.75;;;14.60;94.40;;;;;;4992676;28;20085;-79
2022/05/01 12:29:20;;;;;;;12.80;8.05;;;14.80;93.40;;;;;;4992616;28;20047;-77
2022/05/01 12:32:07;;;;;;;11.27;7.70;;;14.90;92.70;;;;;;4992615;28;20077;-77
2022/05/01 12:34:38;;;;;;;12.50;8.73;;;14.80;92.40;;;;;;4992492;28;20089;-78
2022/05/01 12:37:12;;;;;;;11.55;7.90;;;14.60;93.60;;;;;;4995507;28;20058;-80
2022/05/01 12:39:39;;;;;;;10.93;7.30;;;14.70;93.20;;;;;;4996307;28;20042;-78
2022/05/01 12:45:17;;;;;;;12.10;8.77;;;15.40;92.20;;;;;;4996650;28;20061;-80
2022/05/01 12:47:47;;;;;;;12.10;8.15;;;15.20;91.60;;;;;;4996326;28;20047;-79
2022/05/01 12:50:28;;;;;;;11.57;8.82;;;14.90;92.50;;;;;;4995693;28;20495;-79
2022/05/01 12:53:00;;;;;;;10.65;7.43;;;14.70;92.80;;;;;;4996017;28;20495;-78
2022/05/01 12:55:33;;;;;;;11.48;6.97;;;15.00;92.60;;;;;;4995989;28;20569;-80
2022/05/01 12:58:03;;;;;;;8.80;6.20;;;15.40;92.30;;;;;;4996062;28;20137;-78
2022/05/01 13:00:36;;;;;;;9.25;7.13;;;15.70;91.90;;;;;;4995880;28;20129;-78
2022/05/01 13:03:17;;;;;;;9.10;6.22;;;15.70;91.90;;;;;;5009749;28;20427;-79
2022/05/01 13:06:00;;;;;;;9.02;6.72;;;15.70;92.90;;;;;;5015283;28;20089;-78
2022/05/01 13:08:31;;;;;;;11.10;8.07;;;15.60;92.30;;;;;;5015492;28;20054;-78
2022/05/01 13:11:18;;;;;;;13.38;8.60;;;15.50;91.70;;;;;;5015393;28;20100;-78
2022/05/01 13:13:52;;;;;;;13.43;8.95;;;15.40;92.30;;;;;;5015381;28;20080;-78
2022/05/01 13:16:22;;;;;;;11.52;8.10;;;15.80;92.30;;;;;;5015251;28;20053;-77
2022/05/01 13:18:54;;;;;;;11.63;8.48;;;16.10;91.10;;;;;;5015141;28;20041;-80
2022/05/01 13:21:25;;;;;;;12.90;8.65;;;16.40;90.00;;;;;;5015276;28;20127;-78
2022/05/01 13:23:58;;;;;;;10.65;7.07;;;15.90;89.80;;;;;;5016317;28;20046;-79
2022/05/01 13:26:25;;;;;;;11.15;8.02;;;16.70;88.80;;;;;;5017736;28;20050;-79
2022/05/01 13:28:58;;;;;;;11.00;7.72;;;16.90;87.20;;;;;;5019047;28;20132;-78
2022/05/01 13:31:25;;;;;;;11.40;7.53;;;17.20;84.50;;;;;;5016905;28;20470;-77